sensor_id;sensor_type;location;lat;lon;timestamp;temperature;humidity
9915;DHT22;4996;48.746;9.174;2023-08-20T00:02:25;24.60;99.90
9915;DHT22;4996;48.746;9.174;2023-08-20T00:04:53;24.60;99.90
9915;DHT22;4996;48.746;9.174;2023-08-20T00:07:22;24.60;99.90
9915;DHT22;4996;48.746;9.174;2023-08-20T00:09:47;24.50;99.90
9915;DHT22;4996;48.746;9.174;2023-08-20T00:12:13;24.50;99.90
9915;DHT22;4996;48.746;9.174;2023-08-20T00:14:59;24.50;99.90
9915;DHT22;4996;48.746;9.174;2023-08-20T00:17:31;24.50;99.90
9915;DHT22;4996;48.746;9.174;2023-08-20T00:19:57;24.50;99.90
9915;DHT22;4996;48.746;9.174;2023-08-20T00:22:24;24.50;99.90
9915;DHT22;4996;48.746;9.174;2023-08-20T00:24:51;24.50;99.90
9915;DHT22;4996;48.746;9.174;2023-08-20T00:27:17;24.50;99.90
9915;DHT22;4996;48.746;9.174;2023-08-20T00:29:43;24.50;99.90
9915;DHT22;4996;48.746;9.174;2023-08-20T00:32:09;24.60;99.90
9915;DHT22;4996;48.746;9.174;2023-08-20T00:34:34;24.50;99.90
9915;DHT22;4996;48.746;9.174;2023-08-20T00:37:01;24.60;99.90
9915;DHT22;4996;48.746;9.174;2023-08-20T00:39:26;24.60;99.90
9915;DHT22;4996;48.746;9.174;2023-08-20T00:41:52;24.60;99.90
9915;DHT22;4996;48.746;9.174;2023-08-20T00:44:18;24.60;99.90
9915;DHT22;4996;48.746;9.174;2023-08-20T00:46:43;24.60;99.90
9915;DHT22;4996;48.746;9.174;2023-08-20T00:49:09;24.60;99.90
9915;DHT22;4996;48.746;9.174;2023-08-20T00:51:35;24.60;99.90
9915;DHT22;4996;48.746;9.174;2023-08-20T00:54:02;24.60;99.90
9915;DHT22;4996;48.746;9.174;2023-08-20T00:56:28;24.60;99.90
9915;DHT22;4996;48.746;9.174;2023-08-20T00:58:54;24.60;99.90
9915;DHT22;4996;48.746;9.174;2023-08-20T01:01:21;24.60;99.90
9915;DHT22;4996;48.746;9.174;2023-08-20T01:03:47;24.60;99.90
9915;DHT22;4996;48.746;9.174;2023-08-20T01:06:28;24.60;99.90
9915;DHT22;4996;48.746;9.174;2023-08-20T01:09:05;24.60;99.90
9915;DHT22;4996;48.746;9.174;2023-08-20T01:11:43;24.60;99.90
9915;DHT22;4996;48.746;9.174;2023-08-20T01:14:17;24.50;99.90
9915;DHT22;4996;48.746;9.174;2023-08-20T01:16:43;24.50;99.90
9915;DHT22;4996;48.746;9.174;2023-08-20T01:19:16;24.60;99.90
9915;DHT22;4996;48.746;9.174;2023-08-20T01:22:05;24.50;99.90
9915;DHT22;4996;48.746;9.174;2023-08-20T01:30:07;24.50;99.90
9915;DHT22;4996;48.746;9.174;2023-08-20T01:32:33;24.50;99.90
9915;DHT22;4996;48.746;9.174;2023-08-20T01:35:00;24.50;99.90
9915;DHT22;4996;48.746;9.174;2023-08-20T01:37:26;24.50;99.90
9915;DHT22;4996;48.746;9.174;2023-08-20T01:39:51;24.50;99.90
9915;DHT22;4996;48.746;9.174;2023-08-20T01:42:18;24.50;99.90
9915;DHT22;4996;48.746;9.174;2023-08-20T01:44:43;24.50;99.90
9915;DHT22;4996;48.746;9.174;2023-08-20T01:47:09;24.50;99.90
9915;DHT22;4996;48.746;9.174;2023-08-20T01:49:34;24.50;99.90
9915;DHT22;4996;48.746;9.174;2023-08-20T01:52:00;24.50;99.90
9915;DHT22;4996;48.746;9.174;2023-08-20T01:54:25;24.50;99.90
9915;DHT22;4996;48.746;9.174;2023-08-20T01:56:51;24.50;99.90
9915;DHT22;4996;48.746;9.174;2023-08-20T01:59:17;24.40;99.90
9915;DHT22;4996;48.746;9.174;2023-08-20T02:01:43;24.50;99.90
9915;DHT22;4996;48.746;9.174;2023-08-20T02:04:09;24.40;99.90
9915;DHT22;4996;48.746;9.174;2023-08-20T02:06:35;24.40;99.90
9915;DHT22;4996;48.746;9.174;2023-08-20T02:09:00;24.40;99.90
9915;DHT22;4996;48.746;9.174;2023-08-20T02:11:26;24.40;99.90
9915;DHT22;4996;48.746;9.174;2023-08-20T02:13:51;24.40;99.90
9915;DHT22;4996;48.746;9.174;2023-08-20T02:16:17;24.40;99.90
9915;DHT22;4996;48.746;9.174;2023-08-20T02:18:43;24.40;99.90
9915;DHT22;4996;48.746;9.174;2023-08-20T02:21:08;24.40;99.90
9915;DHT22;4996;48.746;9.174;2023-08-20T02:23:34;24.30;99.90
9915;DHT22;4996;48.746;9.174;2023-08-20T02:25:59;24.40;99.90
9915;DHT22;4996;48.746;9.174;2023-08-20T02:28:25;24.40;99.90
9915;DHT22;4996;48.746;9.174;2023-08-20T02:30:51;24.30;99.90
9915;DHT22;4996;48.746;9.174;2023-08-20T02:33:16;24.30;99.90
9915;DHT22;4996;48.746;9.174;2023-08-20T02:35:42;24.30;99.90
9915;DHT22;4996;48.746;9.174;2023-08-20T02:38:07;24.30;99.90
9915;DHT22;4996;48.746;9.174;2023-08-20T02:40:40;24.20;99.90
9915;DHT22;4996;48.746;9.174;2023-08-20T02:43:05;24.20;99.90
9915;DHT22;4996;48.746;9.174;2023-08-20T02:45:31;24.50;99.90
9915;DHT22;4996;48.746;9.174;2023-08-20T02:47:57;24.20;99.90
9915;DHT22;4996;48.746;9.174;2023-08-20T02:50:22;24.10;99.90
9915;DHT22;4996;48.746;9.174;2023-08-20T02:52:48;24.10;99.90
9915;DHT22;4996;48.746;9.174;2023-08-20T02:55:13;24.10;99.90
9915;DHT22;4996;48.746;9.174;2023-08-20T02:57:39;24.10;99.90
9915;DHT22;4996;48.746;9.174;2023-08-20T03:00:05;24.10;99.90
9915;DHT22;4996;48.746;9.174;2023-08-20T03:02:35;24.10;99.90
9915;DHT22;4996;48.746;9.174;2023-08-20T03:05:00;24.10;99.90
9915;DHT22;4996;48.746;9.174;2023-08-20T03:07:26;24.00;99.90
9915;DHT22;4996;48.746;9.174;2023-08-20T03:09:51;24.00;99.90
9915;DHT22;4996;48.746;9.174;2023-08-20T03:12:17;23.90;99.90
9915;DHT22;4996;48.746;9.174;2023-08-20T03:14:42;23.80;99.90
9915;DHT22;4996;48.746;9.174;2023-08-20T03:17:08;23.80;99.90
9915;DHT22;4996;48.746;9.174;2023-08-20T03:19:34;23.80;99.90
9915;DHT22;4996;48.746;9.174;2023-08-20T03:22:02;23.70;99.90
9915;DHT22;4996;48.746;9.174;2023-08-20T03:24:27;23.70;99.90
9915;DHT22;4996;48.746;9.174;2023-08-20T03:26:53;23.60;99.90
9915;DHT22;4996;48.746;9.174;2023-08-20T03:29:18;23.50;99.90
9915;DHT22;4996;48.746;9.174;2023-08-20T03:31:44;23.50;99.90
9915;DHT22;4996;48.746;9.174;2023-08-20T03:34:09;23.50;99.90
9915;DHT22;4996;48.746;9.174;2023-08-20T03:36:35;23.40;99.90
9915;DHT22;4996;48.746;9.174;2023-08-20T03:39:01;23.40;99.90
9915;DHT22;4996;48.746;9.174;2023-08-20T03:41:26;23.30;99.90
9915;DHT22;4996;48.746;9.174;2023-08-20T03:43:52;23.30;99.90
9915;DHT22;4996;48.746;9.174;2023-08-20T03:46:17;23.30;99.90
9915;DHT22;4996;48.746;9.174;2023-08-20T03:48:43;23.30;99.90
9915;DHT22;4996;48.746;9.174;2023-08-20T03:51:15;23.30;99.90
9915;DHT22;4996;48.746;9.174;2023-08-20T03:53:40;23.30;99.90
9915;DHT22;4996;48.746;9.174;2023-08-20T03:56:06;23.30;99.90
9915;DHT22;4996;48.746;9.174;2023-08-20T03:58:31;23.30;99.90
9915;DHT22;4996;48.746;9.174;2023-08-20T04:00:57;23.30;99.90
9915;DHT22;4996;48.746;9.174;2023-08-20T04:03:22;23.20;99.90
9915;DHT22;4996;48.746;9.174;2023-08-20T04:05:49;23.10;99.90
9915;DHT22;4996;48.746;9.174;2023-08-20T04:08:15;23.20;99.90
9915;DHT22;4996;48.746;9.174;2023-08-20T04:10:44;23.20;99.90
9915;DHT22;4996;48.746;9.174;2023-08-20T04:13:12;23.10;99.90
9915;DHT22;4996;48.746;9.174;2023-08-20T04:15:39;23.00;99.90
9915;DHT22;4996;48.746;9.174;2023-08-20T04:18:05;23.00;99.90
9915;DHT22;4996;48.746;9.174;2023-08-20T04:20:31;23.00;99.90
9915;DHT22;4996;48.746;9.174;2023-08-20T04:22:57;23.00;99.90
9915;DHT22;4996;48.746;9.174;2023-08-20T04:25:22;23.00;99.90
9915;DHT22;4996;48.746;9.174;2023-08-20T04:27:48;23.00;99.90
9915;DHT22;4996;48.746;9.174;2023-08-20T04:30:13;23.00;99.90
9915;DHT22;4996;48.746;9.174;2023-08-20T04:32:39;23.00;99.90
9915;DHT22;4996;48.746;9.174;2023-08-20T04:35:05;22.90;99.90
9915;DHT22;4996;48.746;9.174;2023-08-20T04:37:30;23.00;99.90
9915;DHT22;4996;48.746;9.174;2023-08-20T04:39:56;22.90;99.90
9915;DHT22;4996;48.746;9.174;2023-08-20T04:42:21;22.90;99.90
9915;DHT22;4996;48.746;9.174;2023-08-20T04:44:47;22.90;99.90
9915;DHT22;4996;48.746;9.174;2023-08-20T04:47:12;23.00;99.90
9915;DHT22;4996;48.746;9.174;2023-08-20T04:49:38;23.10;99.90
9915;DHT22;4996;48.746;9.174;2023-08-20T04:52:04;23.10;99.90
9915;DHT22;4996;48.746;9.174;2023-08-20T04:54:30;23.00;99.90
9915;DHT22;4996;48.746;9.174;2023-08-20T04:56:55;23.00;99.90
9915;DHT22;4996;48.746;9.174;2023-08-20T04:59:21;23.00;99.90
9915;DHT22;4996;48.746;9.174;2023-08-20T05:01:46;22.90;99.90
9915;DHT22;4996;48.746;9.174;2023-08-20T05:04:12;23.00;99.90
9915;DHT22;4996;48.746;9.174;2023-08-20T05:06:37;23.00;99.90
9915;DHT22;4996;48.746;9.174;2023-08-20T05:09:03;23.00;99.90
9915;DHT22;4996;48.746;9.174;2023-08-20T05:11:28;23.00;99.90
9915;DHT22;4996;48.746;9.174;2023-08-20T05:13:57;23.10;99.90
9915;DHT22;4996;48.746;9.174;2023-08-20T05:16:22;23.10;99.90
9915;DHT22;4996;48.746;9.174;2023-08-20T05:18:48;23.20;99.90
9915;DHT22;4996;48.746;9.174;2023-08-20T05:21:13;23.20;99.90
9915;DHT22;4996;48.746;9.174;2023-08-20T05:23:40;23.20;99.90
9915;DHT22;4996;48.746;9.174;2023-08-20T05:26:09;23.20;99.90
9915;DHT22;4996;48.746;9.174;2023-08-20T05:28:34;23.10;99.90
9915;DHT22;4996;48.746;9.174;2023-08-20T05:31:00;23.20;99.90
9915;DHT22;4996;48.746;9.174;2023-08-20T05:33:25;23.30;99.90
9915;DHT22;4996;48.746;9.174;2023-08-20T05:35:51;23.30;99.90
9915;DHT22;4996;48.746;9.174;2023-08-20T05:38:17;23.40;99.90
9915;DHT22;4996;48.746;9.174;2023-08-20T05:40:43;23.40;99.90
9915;DHT22;4996;48.746;9.174;2023-08-20T05:43:08;23.50;99.90
9915;DHT22;4996;48.746;9.174;2023-08-20T05:45:34;23.60;99.90
9915;DHT22;4996;48.746;9.174;2023-08-20T05:48:00;23.70;99.90
9915;DHT22;4996;48.746;9.174;2023-08-20T05:50:25;23.70;99.90
9915;DHT22;4996;48.746;9.174;2023-08-20T05:52:52;23.80;99.90
9915;DHT22;4996;48.746;9.174;2023-08-20T05:55:18;24.00;99.90
9915;DHT22;4996;48.746;9.174;2023-08-20T05:57:43;24.10;99.90
9915;DHT22;4996;48.746;9.174;2023-08-20T06:00:09;24.10;99.90
9915;DHT22;4996;48.746;9.174;2023-08-20T06:02:36;24.30;99.90
9915;DHT22;4996;48.746;9.174;2023-08-20T06:05:02;24.30;99.90
9915;DHT22;4996;48.746;9.174;2023-08-20T06:07:30;24.40;99.90
9915;DHT22;4996;48.746;9.174;2023-08-20T06:09:55;24.50;99.90
9915;DHT22;4996;48.746;9.174;2023-08-20T06:12:22;24.60;99.90
9915;DHT22;4996;48.746;9.174;2023-08-20T06:14:47;24.70;99.90
9915;DHT22;4996;48.746;9.174;2023-08-20T06:17:13;25.00;99.90
9915;DHT22;4996;48.746;9.174;2023-08-20T06:19:38;25.00;99.90
9915;DHT22;4996;48.746;9.174;2023-08-20T06:22:04;25.10;99.90
9915;DHT22;4996;48.746;9.174;2023-08-20T06:24:29;25.30;99.90
9915;DHT22;4996;48.746;9.174;2023-08-20T06:26:55;25.40;99.90
9915;DHT22;4996;48.746;9.174;2023-08-20T06:29:20;25.50;99.90
9915;DHT22;4996;48.746;9.174;2023-08-20T06:31:47;25.70;99.90
9915;DHT22;4996;48.746;9.174;2023-08-20T06:34:13;25.90;99.90
9915;DHT22;4996;48.746;9.174;2023-08-20T06:36:39;25.90;99.90
9915;DHT22;4996;48.746;9.174;2023-08-20T06:39:04;26.10;99.90
9915;DHT22;4996;48.746;9.174;2023-08-20T06:41:30;26.10;99.90
9915;DHT22;4996;48.746;9.174;2023-08-20T06:43:56;26.10;99.90
9915;DHT22;4996;48.746;9.174;2023-08-20T06:46:21;26.10;99.90
9915;DHT22;4996;48.746;9.174;2023-08-20T06:48:47;26.10;99.90
9915;DHT22;4996;48.746;9.174;2023-08-20T06:51:13;26.20;99.90
9915;DHT22;4996;48.746;9.174;2023-08-20T06:53:40;26.20;99.90
9915;DHT22;4996;48.746;9.174;2023-08-20T06:56:09;26.10;99.90
9915;DHT22;4996;48.746;9.174;2023-08-20T06:58:40;26.20;99.90
9915;DHT22;4996;48.746;9.174;2023-08-20T07:01:06;26.20;99.90
9915;DHT22;4996;48.746;9.174;2023-08-20T07:03:43;26.40;99.90
9915;DHT22;4996;48.746;9.174;2023-08-20T07:06:10;26.40;99.90
9915;DHT22;4996;48.746;9.174;2023-08-20T07:08:39;26.50;99.90
9915;DHT22;4996;48.746;9.174;2023-08-20T07:11:05;26.70;99.90
9915;DHT22;4996;48.746;9.174;2023-08-20T07:13:30;26.80;99.90
9915;DHT22;4996;48.746;9.174;2023-08-20T07:15:56;26.80;99.90
9915;DHT22;4996;48.746;9.174;2023-08-20T07:18:22;26.90;99.90
9915;DHT22;4996;48.746;9.174;2023-08-20T07:20:47;26.80;99.90
9915;DHT22;4996;48.746;9.174;2023-08-20T07:23:13;26.90;99.90
9915;DHT22;4996;48.746;9.174;2023-08-20T07:25:39;27.00;99.90
9915;DHT22;4996;48.746;9.174;2023-08-20T07:28:06;27.10;99.90
9915;DHT22;4996;48.746;9.174;2023-08-20T07:30:32;27.10;99.90
9915;DHT22;4996;48.746;9.174;2023-08-20T07:32:58;27.10;99.90
9915;DHT22;4996;48.746;9.174;2023-08-20T07:35:24;27.10;99.90
9915;DHT22;4996;48.746;9.174;2023-08-20T07:37:50;27.20;99.90
9915;DHT22;4996;48.746;9.174;2023-08-20T07:40:15;27.10;99.90
9915;DHT22;4996;48.746;9.174;2023-08-20T07:42:41;27.40;99.90
9915;DHT22;4996;48.746;9.174;2023-08-20T07:45:07;27.40;99.90
9915;DHT22;4996;48.746;9.174;2023-08-20T07:47:34;27.50;99.90
9915;DHT22;4996;48.746;9.174;2023-08-20T07:49:59;27.70;99.90
9915;DHT22;4996;48.746;9.174;2023-08-20T07:52:25;27.70;99.90
9915;DHT22;4996;48.746;9.174;2023-08-20T07:54:50;27.90;99.90
9915;DHT22;4996;48.746;9.174;2023-08-20T07:57:16;27.80;99.90
9915;DHT22;4996;48.746;9.174;2023-08-20T07:59:41;27.90;99.90
9915;DHT22;4996;48.746;9.174;2023-08-20T08:02:07;27.80;99.90
9915;DHT22;4996;48.746;9.174;2023-08-20T08:04:34;27.90;99.90
9915;DHT22;4996;48.746;9.174;2023-08-20T08:07:00;28.10;99.90
9915;DHT22;4996;48.746;9.174;2023-08-20T08:09:28;28.40;99.90
9915;DHT22;4996;48.746;9.174;2023-08-20T08:11:53;28.40;99.90
9915;DHT22;4996;48.746;9.174;2023-08-20T08:14:19;28.50;99.90
9915;DHT22;4996;48.746;9.174;2023-08-20T08:16:46;28.70;99.90
9915;DHT22;4996;48.746;9.174;2023-08-20T08:19:12;28.80;99.90
9915;DHT22;4996;48.746;9.174;2023-08-20T08:21:38;29.00;99.90
9915;DHT22;4996;48.746;9.174;2023-08-20T08:24:04;29.10;99.90
9915;DHT22;4996;48.746;9.174;2023-08-20T08:26:31;29.30;99.90
9915;DHT22;4996;48.746;9.174;2023-08-20T08:28:56;29.40;99.90
9915;DHT22;4996;48.746;9.174;2023-08-20T08:31:23;29.40;99.90
9915;DHT22;4996;48.746;9.174;2023-08-20T08:33:49;29.50;99.90
9915;DHT22;4996;48.746;9.174;2023-08-20T08:36:14;29.60;99.90
9915;DHT22;4996;48.746;9.174;2023-08-20T08:38:42;29.50;99.90
9915;DHT22;4996;48.746;9.174;2023-08-20T08:41:11;29.70;99.90
9915;DHT22;4996;48.746;9.174;2023-08-20T08:43:40;29.90;99.90
9915;DHT22;4996;48.746;9.174;2023-08-20T08:46:07;30.00;99.90
9915;DHT22;4996;48.746;9.174;2023-08-20T08:48:34;30.20;99.90
9915;DHT22;4996;48.746;9.174;2023-08-20T08:51:01;30.50;99.90
9915;DHT22;4996;48.746;9.174;2023-08-20T08:53:27;30.80;99.90
9915;DHT22;4996;48.746;9.174;2023-08-20T08:55:53;31.00;99.90
9915;DHT22;4996;48.746;9.174;2023-08-20T08:58:19;31.20;99.90
9915;DHT22;4996;48.746;9.174;2023-08-20T09:00:44;31.30;99.90
9915;DHT22;4996;48.746;9.174;2023-08-20T09:03:10;31.50;99.90
9915;DHT22;4996;48.746;9.174;2023-08-20T09:06:00;31.50;99.90
9915;DHT22;4996;48.746;9.174;2023-08-20T09:08:29;31.60;99.90
9915;DHT22;4996;48.746;9.174;2023-08-20T09:10:57;31.70;99.90
9915;DHT22;4996;48.746;9.174;2023-08-20T09:13:24;31.50;99.90
9915;DHT22;4996;48.746;9.174;2023-08-20T09:15:52;31.60;99.90
9915;DHT22;4996;48.746;9.174;2023-08-20T09:18:17;31.70;99.90
9915;DHT22;4996;48.746;9.174;2023-08-20T09:20:43;32.00;99.90
9915;DHT22;4996;48.746;9.174;2023-08-20T09:23:12;32.20;99.90
9915;DHT22;4996;48.746;9.174;2023-08-20T09:25:38;32.40;99.90
9915;DHT22;4996;48.746;9.174;2023-08-20T09:28:04;32.60;99.90
9915;DHT22;4996;48.746;9.174;2023-08-20T09:30:30;32.80;99.90
9915;DHT22;4996;48.746;9.174;2023-08-20T09:33:10;32.70;99.90
9915;DHT22;4996;48.746;9.174;2023-08-20T09:35:36;32.70;99.90
9915;DHT22;4996;48.746;9.174;2023-08-20T09:38:03;32.80;99.90
9915;DHT22;4996;48.746;9.174;2023-08-20T09:40:30;32.80;99.90
9915;DHT22;4996;48.746;9.174;2023-08-20T09:42:56;32.70;99.90
9915;DHT22;4996;48.746;9.174;2023-08-20T09:45:24;32.80;99.90
9915;DHT22;4996;48.746;9.174;2023-08-20T09:47:54;32.80;99.90
9915;DHT22;4996;48.746;9.174;2023-08-20T09:50:21;32.80;99.90
9915;DHT22;4996;48.746;9.174;2023-08-20T09:53:02;32.80;99.90
9915;DHT22;4996;48.746;9.174;2023-08-20T09:55:32;32.30;99.90
9915;DHT22;4996;48.746;9.174;2023-08-20T09:58:01;32.60;99.90
9915;DHT22;4996;48.746;9.174;2023-08-20T10:00:27;32.70;99.90
9915;DHT22;4996;48.746;9.174;2023-08-20T10:02:54;32.60;99.90
9915;DHT22;4996;48.746;9.174;2023-08-20T10:05:20;32.60;99.90
9915;DHT22;4996;48.746;9.174;2023-08-20T10:07:47;32.60;99.90
9915;DHT22;4996;48.746;9.174;2023-08-20T10:10:14;32.80;99.90
9915;DHT22;4996;48.746;9.174;2023-08-20T10:12:40;32.60;99.90
9915;DHT22;4996;48.746;9.174;2023-08-20T10:15:10;32.80;99.90
9915;DHT22;4996;48.746;9.174;2023-08-20T10:17:37;32.60;99.90
9915;DHT22;4996;48.746;9.174;2023-08-20T10:20:04;32.50;99.90
9915;DHT22;4996;48.746;9.174;2023-08-20T10:22:36;32.70;99.90
9915;DHT22;4996;48.746;9.174;2023-08-20T10:25:07;32.80;99.90
9915;DHT22;4996;48.746;9.174;2023-08-20T10:27:35;32.70;99.90
9915;DHT22;4996;48.746;9.174;2023-08-20T10:30:02;32.90;99.90
9915;DHT22;4996;48.746;9.174;2023-08-20T10:32:51;33.00;99.90
9915;DHT22;4996;48.746;9.174;2023-08-20T10:35:28;32.80;99.90
9915;DHT22;4996;48.746;9.174;2023-08-20T10:38:07;32.60;99.90
9915;DHT22;4996;48.746;9.174;2023-08-20T10:40:52;32.50;99.90
9915;DHT22;4996;48.746;9.174;2023-08-20T10:43:39;32.60;99.90
9915;DHT22;4996;48.746;9.174;2023-08-20T10:48:40;32.20;99.90
9915;DHT22;4996;48.746;9.174;2023-08-20T10:51:10;32.00;99.90
9915;DHT22;4996;48.746;9.174;2023-08-20T10:53:36;32.10;99.90
9915;DHT22;4996;48.746;9.174;2023-08-20T10:59:08;32.10;99.90
9915;DHT22;4996;48.746;9.174;2023-08-20T11:01:34;32.40;99.90
9915;DHT22;4996;48.746;9.174;2023-08-20T11:04:01;32.30;99.90
9915;DHT22;4996;48.746;9.174;2023-08-20T11:06:31;32.50;99.90
9915;DHT22;4996;48.746;9.174;2023-08-20T11:08:59;32.40;99.90
9915;DHT22;4996;48.746;9.174;2023-08-20T11:11:25;32.70;99.90
9915;DHT22;4996;48.746;9.174;2023-08-20T11:13:51;33.20;99.90
9915;DHT22;4996;48.746;9.174;2023-08-20T11:16:17;33.50;99.90
9915;DHT22;4996;48.746;9.174;2023-08-20T11:18:42;33.60;99.90
9915;DHT22;4996;48.746;9.174;2023-08-20T11:21:08;34.00;99.90
9915;DHT22;4996;48.746;9.174;2023-08-20T11:23:35;34.30;99.90
9915;DHT22;4996;48.746;9.174;2023-08-20T11:26:00;34.90;99.90
9915;DHT22;4996;48.746;9.174;2023-08-20T11:28:27;35.60;99.90
9915;DHT22;4996;48.746;9.174;2023-08-20T11:30:53;36.30;99.90
9915;DHT22;4996;48.746;9.174;2023-08-20T11:33:21;37.10;98.90
9915;DHT22;4996;48.746;9.174;2023-08-20T11:35:47;37.70;97.80
9915;DHT22;4996;48.746;9.174;2023-08-20T11:38:13;37.80;96.10
9915;DHT22;4996;48.746;9.174;2023-08-20T11:40:39;38.60;95.50
9915;DHT22;4996;48.746;9.174;2023-08-20T11:43:05;39.20;94.00
9915;DHT22;4996;48.746;9.174;2023-08-20T11:45:30;39.70;93.00
9915;DHT22;4996;48.746;9.174;2023-08-20T11:47:57;39.90;91.80
9915;DHT22;4996;48.746;9.174;2023-08-20T11:50:23;39.90;91.20
9915;DHT22;4996;48.746;9.174;2023-08-20T11:52:51;40.50;90.40
9915;DHT22;4996;48.746;9.174;2023-08-20T11:55:22;40.60;88.90
9915;DHT22;4996;48.746;9.174;2023-08-20T11:57:53;40.90;86.40
9915;DHT22;4996;48.746;9.174;2023-08-20T12:00:26;40.50;84.80
9915;DHT22;4996;48.746;9.174;2023-08-20T12:02:55;40.20;85.50
9915;DHT22;4996;48.746;9.174;2023-08-20T12:05:26;40.20;85.20
9915;DHT22;4996;48.746;9.174;2023-08-20T12:08:02;40.00;85.60
9915;DHT22;4996;48.746;9.174;2023-08-20T12:10:31;40.00;84.80
9915;DHT22;4996;48.746;9.174;2023-08-20T12:12:58;39.80;84.60
9915;DHT22;4996;48.746;9.174;2023-08-20T12:15:24;39.20;84.70
9915;DHT22;4996;48.746;9.174;2023-08-20T12:18:01;39.50;84.50
9915;DHT22;4996;48.746;9.174;2023-08-20T12:20:31;39.60;83.40
9915;DHT22;4996;48.746;9.174;2023-08-20T12:22:59;39.10;83.80
9915;DHT22;4996;48.746;9.174;2023-08-20T12:25:25;39.40;83.40
9915;DHT22;4996;48.746;9.174;2023-08-20T12:27:51;39.70;83.70
9915;DHT22;4996;48.746;9.174;2023-08-20T12:30:16;39.80;82.30
9915;DHT22;4996;48.746;9.174;2023-08-20T12:32:42;39.90;82.10
9915;DHT22;4996;48.746;9.174;2023-08-20T12:35:07;40.00;81.90
9915;DHT22;4996;48.746;9.174;2023-08-20T12:37:33;39.60;82.50
9915;DHT22;4996;48.746;9.174;2023-08-20T12:39:59;39.60;81.90
9915;DHT22;4996;48.746;9.174;2023-08-20T12:42:25;39.70;81.10
9915;DHT22;4996;48.746;9.174;2023-08-20T12:44:50;39.50;81.30
9915;DHT22;4996;48.746;9.174;2023-08-20T12:47:16;39.90;80.90
9915;DHT22;4996;48.746;9.174;2023-08-20T12:49:41;40.50;79.50
9915;DHT22;4996;48.746;9.174;2023-08-20T12:52:06;40.70;79.50
9915;DHT22;4996;48.746;9.174;2023-08-20T12:54:32;40.20;79.80
9915;DHT22;4996;48.746;9.174;2023-08-20T12:56:58;40.60;79.00
9915;DHT22;4996;48.746;9.174;2023-08-20T12:59:23;40.50;78.10
9915;DHT22;4996;48.746;9.174;2023-08-20T13:01:49;40.50;78.50
9915;DHT22;4996;48.746;9.174;2023-08-20T13:04:15;40.80;78.60
9915;DHT22;4996;48.746;9.174;2023-08-20T13:06:41;40.70;77.10
9915;DHT22;4996;48.746;9.174;2023-08-20T13:09:07;40.50;78.70
9915;DHT22;4996;48.746;9.174;2023-08-20T13:11:35;40.60;77.10
9915;DHT22;4996;48.746;9.174;2023-08-20T13:14:01;40.50;77.90
9915;DHT22;4996;48.746;9.174;2023-08-20T13:16:27;40.30;77.80
9915;DHT22;4996;48.746;9.174;2023-08-20T13:18:54;40.60;77.80
9915;DHT22;4996;48.746;9.174;2023-08-20T13:21:20;40.40;76.90
9915;DHT22;4996;48.746;9.174;2023-08-20T13:23:46;39.80;77.60
9915;DHT22;4996;48.746;9.174;2023-08-20T13:26:12;39.30;77.40
9915;DHT22;4996;48.746;9.174;2023-08-20T13:28:37;38.70;77.80
9915;DHT22;4996;48.746;9.174;2023-08-20T13:31:03;38.20;78.80
9915;DHT22;4996;48.746;9.174;2023-08-20T13:33:28;38.20;79.00
9915;DHT22;4996;48.746;9.174;2023-08-20T13:35:54;37.40;80.10
9915;DHT22;4996;48.746;9.174;2023-08-20T13:38:21;37.00;80.90
9915;DHT22;4996;48.746;9.174;2023-08-20T13:40:47;36.50;82.60
9915;DHT22;4996;48.746;9.174;2023-08-20T13:43:14;36.10;82.30
9915;DHT22;4996;48.746;9.174;2023-08-20T13:45:39;35.90;82.90
9915;DHT22;4996;48.746;9.174;2023-08-20T13:48:05;35.70;83.40
9915;DHT22;4996;48.746;9.174;2023-08-20T13:50:31;35.80;83.20
9915;DHT22;4996;48.746;9.174;2023-08-20T13:52:56;35.50;84.30
9915;DHT22;4996;48.746;9.174;2023-08-20T13:55:22;35.10;84.70
9915;DHT22;4996;48.746;9.174;2023-08-20T13:57:48;34.70;85.40
9915;DHT22;4996;48.746;9.174;2023-08-20T14:00:13;34.60;86.20
9915;DHT22;4996;48.746;9.174;2023-08-20T14:02:39;34.80;86.10
9915;DHT22;4996;48.746;9.174;2023-08-20T14:05:05;34.80;85.70
9915;DHT22;4996;48.746;9.174;2023-08-20T14:07:31;34.80;85.70
9915;DHT22;4996;48.746;9.174;2023-08-20T14:09:58;34.60;86.80
9915;DHT22;4996;48.746;9.174;2023-08-20T14:12:23;34.50;87.20
9915;DHT22;4996;48.746;9.174;2023-08-20T14:14:49;34.30;87.50
9915;DHT22;4996;48.746;9.174;2023-08-20T14:17:16;34.30;88.20
9915;DHT22;4996;48.746;9.174;2023-08-20T14:19:41;34.20;88.60
9915;DHT22;4996;48.746;9.174;2023-08-20T14:22:07;34.20;88.30
9915;DHT22;4996;48.746;9.174;2023-08-20T14:24:32;34.20;88.40
9915;DHT22;4996;48.746;9.174;2023-08-20T14:26:58;34.10;89.80
9915;DHT22;4996;48.746;9.174;2023-08-20T14:29:23;33.90;90.10
9915;DHT22;4996;48.746;9.174;2023-08-20T14:31:49;33.80;90.30
9915;DHT22;4996;48.746;9.174;2023-08-20T14:34:14;33.80;90.60
9915;DHT22;4996;48.746;9.174;2023-08-20T14:36:40;33.80;90.70
9915;DHT22;4996;48.746;9.174;2023-08-20T14:39:06;33.70;90.80
9915;DHT22;4996;48.746;9.174;2023-08-20T14:41:31;33.50;90.90
9915;DHT22;4996;48.746;9.174;2023-08-20T14:43:57;33.40;91.20
9915;DHT22;4996;48.746;9.174;2023-08-20T14:46:22;33.60;91.10
9915;DHT22;4996;48.746;9.174;2023-08-20T14:48:48;33.50;91.20
9915;DHT22;4996;48.746;9.174;2023-08-20T14:51:13;33.50;91.50
9915;DHT22;4996;48.746;9.174;2023-08-20T14:53:39;33.60;91.40
9915;DHT22;4996;48.746;9.174;2023-08-20T14:56:04;33.60;91.30
9915;DHT22;4996;48.746;9.174;2023-08-20T14:58:31;33.60;91.60
9915;DHT22;4996;48.746;9.174;2023-08-20T15:00:56;33.50;91.50
9915;DHT22;4996;48.746;9.174;2023-08-20T15:03:22;33.50;91.50
9915;DHT22;4996;48.746;9.174;2023-08-20T15:05:47;33.30;91.60
9915;DHT22;4996;48.746;9.174;2023-08-20T15:08:14;33.30;91.70
9915;DHT22;4996;48.746;9.174;2023-08-20T15:10:39;33.20;91.70
9915;DHT22;4996;48.746;9.174;2023-08-20T15:13:05;33.10;91.90
9915;DHT22;4996;48.746;9.174;2023-08-20T15:15:31;33.30;91.60
9915;DHT22;4996;48.746;9.174;2023-08-20T15:17:57;33.20;91.60
9915;DHT22;4996;48.746;9.174;2023-08-20T15:20:22;33.30;91.70
9915;DHT22;4996;48.746;9.174;2023-08-20T15:22:48;33.20;91.80
9915;DHT22;4996;48.746;9.174;2023-08-20T15:25:13;33.20;91.80
9915;DHT22;4996;48.746;9.174;2023-08-20T15:27:40;33.20;92.00
9915;DHT22;4996;48.746;9.174;2023-08-20T15:30:07;33.40;92.10
9915;DHT22;4996;48.746;9.174;2023-08-20T15:32:33;33.40;91.50
9915;DHT22;4996;48.746;9.174;2023-08-20T15:34:58;33.50;91.50
9915;DHT22;4996;48.746;9.174;2023-08-20T15:37:24;33.30;91.40
9915;DHT22;4996;48.746;9.174;2023-08-20T15:39:49;33.30;91.40
9915;DHT22;4996;48.746;9.174;2023-08-20T15:42:16;33.10;91.80
9915;DHT22;4996;48.746;9.174;2023-08-20T15:44:41;32.90;91.80
9915;DHT22;4996;48.746;9.174;2023-08-20T15:47:07;33.00;91.70
9915;DHT22;4996;48.746;9.174;2023-08-20T15:49:33;33.00;91.90
9915;DHT22;4996;48.746;9.174;2023-08-20T15:51:59;32.80;91.10
9915;DHT22;4996;48.746;9.174;2023-08-20T15:54:24;32.50;91.30
9915;DHT22;4996;48.746;9.174;2023-08-20T15:56:51;32.60;91.50
9915;DHT22;4996;48.746;9.174;2023-08-20T15:59:17;32.50;91.50
9915;DHT22;4996;48.746;9.174;2023-08-20T16:01:43;32.50;91.80
9915;DHT22;4996;48.746;9.174;2023-08-20T16:04:08;32.50;91.30
9915;DHT22;4996;48.746;9.174;2023-08-20T16:06:34;32.50;91.70
9915;DHT22;4996;48.746;9.174;2023-08-20T16:08:59;32.30;92.10
9915;DHT22;4996;48.746;9.174;2023-08-20T16:11:25;32.20;92.60